Time;durP1;ratioP1;P1;durP2;ratioP2;P2;SDS_P1;SDS_P2;PMS_P1;PMS_P2;Temp;Humidity;BMP_temperature;BMP_pressure;BME280_temperature;BME280_humidity;BME280_pressure;Samples;Min_cycle;Max_cycle;Signal;HPM_P1;HPM_P2
2024/04/05 00:04:17;;;;;;;2.10;0.98;;;21.50;55.70;;;;;;10382166;28;20081;-50
2024/04/05 00:09:20;;;;;;;1.67;0.80;;;21.60;55.80;;;;;;10365305;28;20046;-55
2024/04/05 00:14:22;;;;;;;1.02;0.70;;;21.50;55.90;;;;;;10391040;28;20537;-54
2024/04/05 00:19:23;;;;;;;0.60;0.57;;;21.30;56.30;;;;;;10372470;28;20046;-55
2024/04/05 00:24:26;;;;;;;1.55;0.70;;;21.30;56.30;;;;;;10374804;28;20128;-53
2024/04/05 00:29:28;;;;;;;1.73;0.70;;;21.20;56.50;;;;;;10387597;28;20041;-53
2024/04/05 00:34:29;;;;;;;1.50;0.60;;;21.30;56.40;;;;;;10386878;28;20054;-54
2024/04/05 00:39:32;;;;;;;1.27;0.50;;;21.20;56.60;;;;;;10389698;28;20045;-57
2024/04/05 00:44:34;;;;;;;1.40;0.65;;;21.30;56.50;;;;;;10392748;28;20038;-57
2024/04/05 00:49:36;;;;;;;1.20;0.60;;;21.20;56.40;;;;;;10389038;28;20045;-57
2024/04/05 00:54:38;;;;;;;1.15;0.70;;;21.10;56.70;;;;;;10389092;28;20049;-55
2024/04/05 00:59:40;;;;;;;0.90;0.50;;;21.10;56.70;;;;;;10403369;28;20136;-56
2024/04/05 01:04:42;;;;;;;1.08;0.60;;;21.10;56.70;;;;;;10401650;28;20084;-57
2024/04/05 01:09:45;;;;;;;1.17;0.70;;;21.10;56.80;;;;;;10399585;28;20049;-58
2024/04/05 01:14:46;;;;;;;1.42;0.70;;;21.10;56.60;;;;;;10402020;28;20493;-59
2024/04/05 01:19:48;;;;;;;0.93;0.57;;;21.10;56.50;;;;;;10393128;28;20047;-55
2024/04/05 01:24:53;;;;;;;1.23;0.70;;;21.00;56.80;;;;;;10398224;28;20053;-52
2024/04/05 01:29:55;;;;;;;1.23;0.63;;;21.00;56.80;;;;;;10400840;28;20132;-56
2024/04/05 01:34:56;;;;;;;1.38;0.75;;;21.10;56.60;;;;;;10391360;28;20081;-52
2024/04/05 01:39:59;;;;;;;0.80;0.52;;;20.90;57.10;;;;;;10403689;28;20057;-56
2024/04/05 01:45:01;;;;;;;1.35;0.70;;;21.00;56.70;;;;;;10405052;28;20394;-54
2024/04/05 01:50:03;;;;;;;2.40;0.70;;;20.90;56.90;;;;;;10398639;28;20067;-54
2024/04/05 01:55:06;;;;;;;1.10;0.77;;;21.00;56.80;;;;;;10403935;28;20136;-58
2024/04/05 02:00:09;;;;;;;1.73;0.70;;;20.90;57.00;;;;;;10402432;28;20050;-54
2024/04/05 02:05:10;;;;;;;1.55;0.70;;;20.80;57.10;;;;;;10402438;28;20057;-52
2024/04/05 02:10:13;;;;;;;1.00;0.52;;;20.90;57.00;;;;;;10404507;28;20049;-58
2024/04/05 02:15:15;;;;;;;1.35;0.50;;;20.80;57.00;;;;;;10398085;28;20180;-52
2024/04/05 02:20:16;;;;;;;1.52;0.50;;;20.90;57.00;;;;;;10399117;28;20466;-55
2024/04/05 02:25:19;;;;;;;1.50;0.70;;;20.90;56.80;;;;;;10399592;28;20047;-56
2024/04/05 02:30:24;;;;;;;0.88;0.63;;;20.80;57.10;;;;;;10393121;28;20053;-56
2024/04/05 02:35:25;;;;;;;1.08;0.65;;;20.80;56.90;;;;;;10397044;28;20088;-54
2024/04/05 02:40:28;;;;;;;2.08;0.63;;;20.70;57.20;;;;;;10398874;28;20493;-55
2024/04/05 02:45:30;;;;;;;2.15;0.70;;;20.70;57.10;;;;;;10392819;28;20081;-58
2024/04/05 02:50:32;;;;;;;0.80;0.60;;;20.90;56.80;;;;;;10396805;28;20049;-53
2024/04/05 02:55:34;;;;;;;1.30;0.80;;;20.70;57.10;;;;;;10401377;28;20042;-54
2024/04/05 03:00:38;;;;;;;0.52;0.52;;;20.70;57.10;;;;;;10400258;28;20037;-53
2024/04/05 03:05:40;;;;;;;0.93;0.60;;;20.60;57.30;;;;;;10395476;28;20049;-53
2024/04/05 03:10:43;;;;;;;1.00;0.77;;;20.90;56.70;;;;;;10402304;28;20629;-54
2024/04/05 03:15:46;;;;;;;1.05;0.70;;;21.70;54.90;;;;;;10394950;28;20136;-56
2024/04/05 03:20:47;;;;;;;1.58;0.80;;;22.00;54.50;;;;;;10398940;28;20065;-55
2024/04/05 03:25:50;;;;;;;0.80;0.70;;;22.30;53.60;;;;;;10389411;28;20060;-58
2024/04/05 03:30:52;;;;;;;1.88;0.50;;;22.30;53.50;;;;;;10395712;28;20091;-52
2024/04/05 03:35:54;;;;;;;2.28;0.60;;;22.40;53.30;;;;;;10400952;28;20052;-55
2024/04/05 03:40:57;;;;;;;1.33;0.68;;;22.50;52.80;;;;;;10389863;28;20063;-54
2024/04/05 03:45:58;;;;;;;1.77;0.60;;;22.60;52.80;;;;;;10399162;28;20069;-55
2024/04/05 03:51:00;;;;;;;1.60;0.73;;;22.50;52.90;;;;;;10390258;28;20394;-56
2024/04/05 03:56:03;;;;;;;1.45;0.80;;;22.60;53.40;;;;;;10392246;28;20053;-51
2024/04/05 04:01:04;;;;;;;0.90;0.75;;;22.60;52.60;;;;;;10392802;28;20504;-53
2024/04/05 04:06:06;;;;;;;1.58;0.73;;;22.60;52.80;;;;;;10400878;28;20659;-54
2024/04/05 04:11:09;;;;;;;1.42;0.70;;;22.70;52.50;;;;;;10392819;28;20046;-53
2024/04/05 04:16:11;;;;;;;1.58;0.88;;;22.60;52.70;;;;;;10401469;28;20416;-53
2024/04/05 04:21:12;;;;;;;1.27;0.60;;;22.70;52.70;;;;;;10395965;28;20474;-53
2024/04/05 04:26:16;;;;;;;0.98;0.75;;;22.60;52.80;;;;;;10395227;28;20100;-58
2024/04/05 04:31:20;;;;;;;2.25;0.77;;;22.60;52.90;;;;;;10393566;28;20048;-54
2024/04/05 04:36:22;;;;;;;1.30;0.70;;;22.50;53.20;;;;;;10394200;28;20103;-55
2024/04/05 04:41:26;;;;;;;1.30;0.70;;;22.60;53.20;;;;;;10397033;28;20462;-55
2024/04/05 04:46:27;;;;;;;1.65;0.80;;;22.60;53.30;;;;;;10410135;28;20053;-55
2024/04/05 04:51:29;;;;;;;1.02;0.85;;;22.60;53.40;;;;;;10404847;28;20065;-55
2024/04/05 04:56:32;;;;;;;3.03;0.80;;;22.50;53.60;;;;;;10409146;28;20140;-53
2024/04/05 05:01:34;;;;;;;2.63;0.70;;;22.70;53.50;;;;;;10409585;28;20049;-55
2024/04/05 05:06:35;;;;;;;2.25;0.93;;;22.70;53.40;;;;;;10403906;28;20145;-52
2024/04/05 05:11:38;;;;;;;1.83;0.90;;;22.70;53.50;;;;;;10403052;28;20043;-56
2024/04/05 05:16:40;;;;;;;1.35;0.65;;;22.60;53.50;;;;;;10406576;28;20054;-51
2024/04/05 05:21:42;;;;;;;1.33;0.85;;;22.70;53.70;;;;;;10400441;28;20185;-50
2024/04/05 05:26:44;;;;;;;1.40;0.80;;;22.70;53.50;;;;;;10405375;28;20049;-55
2024/04/05 05:31:46;;;;;;;2.13;0.88;;;22.80;53.60;;;;;;10407122;28;20083;-53
2024/04/05 05:36:48;;;;;;;4.25;0.90;;;22.60;54.00;;;;;;10407068;28;20055;-51
2024/04/05 05:41:51;;;;;;;2.75;0.70;;;22.70;54.50;;;;;;10409279;28;20053;-56
2024/04/05 05:46:52;;;;;;;3.20;1.00;;;22.70;54.70;;;;;;10406012;28;20063;-58
2024/04/05 05:51:54;;;;;;;4.28;1.35;;;22.80;54.60;;;;;;10410730;28;20477;-58
2024/04/05 05:56:57;;;;;;;4.63;1.30;;;22.80;54.40;;;;;;10413947;28;20395;-61
2024/04/05 06:02:01;;;;;;;6.38;1.40;;;22.80;54.20;;;;;;10402374;28;20145;-61
2024/04/05 06:07:04;;;;;;;4.03;1.55;;;22.90;54.20;;;;;;10406192;28;20072;-57
2024/04/05 06:12:08;;;;;;;5.75;1.30;;;22.90;54.20;;;;;;10388417;28;20042;-57
2024/04/05 06:17:09;;;;;;;10.27;1.52;;;22.90;54.20;;;;;;10400822;28;20042;-60
2024/04/05 06:22:11;;;;;;;9.25;1.92;;;22.80;55.00;;;;;;10396794;28;20042;-61
2024/04/05 06:27:14;;;;;;;7.65;1.83;;;23.00;54.50;;;;;;10402047;28;20060;-60
2024/04/05 06:32:15;;;;;;;5.38;1.55;;;23.10;53.90;;;;;;10402482;28;20488;-56
2024/04/05 06:37:17;;;;;;;8.10;1.90;;;23.10;53.70;;;;;;10400878;28;20045;-61
2024/04/05 06:42:20;;;;;;;9.93;1.70;;;23.10;53.70;;;;;;10399655;28;20132;-61
2024/04/05 06:47:22;;;;;;;6.38;1.80;;;23.10;53.90;;;;;;10397449;28;20064;-60
2024/04/05 06:52:24;;;;;;;7.88;2.15;;;23.10;53.80;;;;;;10398905;28;20121;-61
2024/04/05 06:57:26;;;;;;;5.43;1.50;;;23.10;54.00;;;;;;10396850;28;20042;-61
2024/04/05 07:02:28;;;;;;;6.35;1.95;;;23.10;53.70;;;;;;10397671;28;20136;-61
2024/04/05 07:07:30;;;;;;;4.95;1.65;;;23.10;53.70;;;;;;10402146;28;20041;-61
2024/04/05 07:12:33;;;;;;;7.20;2.00;;;23.10;53.80;;;;;;10403663;28;20049;-61
2024/04/05 07:17:34;;;;;;;8.32;2.00;;;23.00;54.20;;;;;;10401443;28;20059;-62
2024/04/05 07:22:36;;;;;;;7.40;1.95;;;23.10;54.30;;;;;;10398765;28;20676;-62
2024/04/05 07:27:39;;;;;;;9.23;2.17;;;23.00;54.70;;;;;;10400487;28;20087;-61
2024/04/05 07:32:41;;;;;;;9.38;2.00;;;23.20;54.10;;;;;;10402405;28;20062;-61
2024/04/05 07:37:43;;;;;;;7.75;2.28;;;23.00;55.00;;;;;;10404952;28;20084;-62
2024/04/05 07:42:49;;;;;;;7.78;2.22;;;22.80;55.40;;;;;;10398573;28;20045;-61
2024/04/05 07:47:51;;;;;;;11.65;3.03;;;22.90;55.40;;;;;;10403706;28;20541;-62
2024/04/05 07:52:54;;;;;;;13.18;3.35;;;22.90;55.40;;;;;;10401154;28;20108;-61
2024/04/05 07:57:56;;;;;;;12.13;3.10;;;23.10;55.00;;;;;;10400638;28;20049;-61
2024/04/05 08:02:58;;;;;;;7.97;3.00;;;23.00;55.20;;;;;;10394236;28;20121;-62
2024/04/05 08:08:00;;;;;;;9.82;3.13;;;23.10;54.90;;;;;;10398727;28;20160;-61
2024/04/05 08:13:03;;;;;;;17.40;3.22;;;23.20;55.10;;;;;;10397864;28;20862;-60
2024/04/05 08:18:05;;;;;;;10.48;3.17;;;23.20;55.10;;;;;;10395684;28;20052;-61
2024/04/05 08:23:06;;;;;;;9.68;3.30;;;23.20;55.60;;;;;;10394220;28;21834;-61
2024/04/05 08:28:09;;;;;;;12.45;2.90;;;23.10;56.10;;;;;;10402157;28;20120;-61
2024/04/05 08:33:11;;;;;;;9.05;3.03;;;23.20;56.00;;;;;;10388798;28;20037;-61
2024/04/05 08:38:12;;;;;;;8.63;2.47;;;23.10;56.40;;;;;;10388308;28;20047;-60
2024/04/05 08:43:16;;;;;;;12.43;2.88;;;22.90;54.30;;;;;;10392087;28;20521;-59
2024/04/05 08:48:18;;;;;;;8.93;2.58;;;22.90;54.50;;;;;;10401933;28;20047;-60
2024/04/05 08:53:20;;;;;;;9.30;2.95;;;23.10;54.30;;;;;;10398464;28;20049;-60
2024/04/05 08:58:23;;;;;;;10.35;2.85;;;23.30;54.00;;;;;;10397186;28;20073;-60
2024/04/05 09:03:24;;;;;;;9.35;2.80;;;23.30;53.90;;;;;;10400666;28;20045;-60
2024/04/05 09:08:26;;;;;;;8.15;2.55;;;23.40;53.90;;;;;;10394280;28;20042;-61
2024/04/05 09:13:30;;;;;;;8.65;2.70;;;23.30;54.20;;;;;;10391722;28;20046;-60
2024/04/05 09:18:32;;;;;;;9.27;2.50;;;23.40;54.70;;;;;;10356019;28;20057;-60
2024/04/05 09:23:33;;;;;;;10.43;2.67;;;23.30;54.50;;;;;;10397281;28;20139;-61
2024/04/05 09:28:36;;;;;;;11.63;3.20;;;23.40;54.20;;;;;;10400741;28;20099;-60
2024/04/05 09:33:38;;;;;;;9.07;2.40;;;23.40;54.40;;;;;;10402907;28;20059;-61
2024/04/05 09:38:40;;;;;;;10.18;2.53;;;23.40;54.80;;;;;;10409016;28;20045;-60
2024/04/05 09:43:43;;;;;;;12.18;2.50;;;23.30;55.20;;;;;;10406068;28;20053;-60
2024/04/05 09:48:45;;;;;;;7.72;2.55;;;23.20;55.70;;;;;;10408595;28;20053;-61
2024/04/05 09:53:47;;;;;;;12.82;2.65;;;23.10;55.80;;;;;;10410364;28;20045;-61
2024/04/05 09:58:50;;;;;;;9.13;2.42;;;23.10;56.30;;;;;;10393187;28;20128;-61
2024/04/05 10:03:51;;;;;;;8.52;2.40;;;23.10;56.30;;;;;;10401183;28;20064;-62
2024/04/05 10:08:53;;;;;;;17.60;2.88;;;23.10;56.20;;;;;;10398360;28;20133;-61
2024/04/05 10:14:02;;;;;;;10.50;3.00;;;23.00;56.80;;;;;;10405633;28;20045;-61
2024/04/05 10:19:10;;;;;;;13.80;3.55;;;23.00;56.70;;;;;;10405838;28;20104;-61
2024/04/05 10:24:12;;;;;;;13.68;3.50;;;23.10;56.70;;;;;;10405517;28;20049;-61
2024/04/05 10:29:15;;;;;;;12.65;3.47;;;23.10;56.80;;;;;;10398568;28;20045;-61
2024/04/05 10:34:24;;;;;;;9.40;2.65;;;23.10;56.90;;;;;;10393886;28;20155;-60
2024/04/05 10:39:25;;;;;;;7.38;2.55;;;23.20;56.80;;;;;;10397714;28;20044;-61
2024/04/05 10:44:29;;;;;;;8.70;2.50;;;23.10;57.00;;;;;;10403372;28;20046;-61
2024/04/05 10:49:58;;;;;;;13.60;4.07;;;23.10;57.10;;;;;;10419245;23;20045;-61
2024/04/05 10:55:09;;;;;;;14.18;3.28;;;23.10;57.30;;;;;;10243770;28;20057;-62
2024/04/05 11:00:13;;;;;;;19.42;3.35;;;23.10;57.30;;;;;;10248745;28;20098;-62
2024/04/05 11:05:15;;;;;;;9.13;2.72;;;23.00;57.90;;;;;;10248974;29;20053;-62
2024/04/05 11:10:17;;;;;;;10.93;2.72;;;23.00;57.00;;;;;;10246709;29;20043;-61
2024/04/05 11:15:21;;;;;;;9.38;2.50;;;22.90;56.80;;;;;;10248141;29;20050;-61
2024/04/05 11:20:23;;;;;;;7.78;2.42;;;22.90;56.60;;;;;;10246769;29;20047;-62
2024/04/05 11:25:24;;;;;;;7.78;2.72;;;23.10;55.90;;;;;;10248242;29;20130;-62
2024/04/05 11:30:30;;;;;;;8.82;2.60;;;23.00;56.10;;;;;;10234724;29;20126;-62
2024/04/05 11:35:34;;;;;;;6.00;2.08;;;23.00;55.70;;;;;;10246298;29;20051;-61
2024/04/05 11:40:39;;;;;;;9.43;2.50;;;22.90;56.20;;;;;;10244008;29;20071;-61
2024/04/05 11:45:43;;;;;;;8.15;2.20;;;22.90;56.40;;;;;;10241566;29;20106;-61
2024/04/05 11:50:44;;;;;;;11.38;2.55;;;23.00;56.70;;;;;;10244746;28;20051;-61
2024/04/05 11:55:54;;;;;;;7.78;2.22;;;23.10;56.90;;;;;;10248743;28;20133;-62
2024/04/05 12:00:57;;;;;;;9.35;1.92;;;23.40;56.90;;;;;;10479069;23;20079;-62
2024/04/05 12:06:01;;;;;;;8.77;2.17;;;23.20;57.40;;;;;;10217366;29;20058;-62
2024/04/05 12:11:02;;;;;;;5.95;2.08;;;23.40;57.40;;;;;;10212930;28;20126;-61
2024/04/05 12:16:08;;;;;;;9.00;2.13;;;23.70;57.00;;;;;;10238054;28;20430;-62
2024/04/05 12:21:10;;;;;;;6.43;1.77;;;23.70;56.50;;;;;;10239720;28;20047;-61
2024/04/05 12:26:12;;;;;;;7.25;2.03;;;23.70;56.30;;;;;;10222062;29;20095;-61
2024/04/05 12:31:14;;;;;;;8.40;2.10;;;23.70;55.90;;;;;;10347222;23;20516;-61
2024/04/05 12:36:17;;;;;;;9.43;1.88;;;23.70;56.00;;;;;;10234596;28;20103;-62
2024/04/05 12:41:19;;;;;;;4.97;1.85;;;23.80;55.80;;;;;;10236424;28;20070;-62
2024/04/05 12:46:24;;;;;;;7.30;1.90;;;23.80;55.90;;;;;;10223471;28;20126;-61
2024/04/05 12:51:25;;;;;;;5.15;1.80;;;23.80;56.00;;;;;;10223936;29;20048;-61
2024/04/05 12:56:29;;;;;;;5.63;1.63;;;24.00;55.80;;;;;;10231162;28;20055;-61
2024/04/05 13:01:32;;;;;;;3.20;1.60;;;23.90;56.00;;;;;;10236615;28;20506;-61
2024/04/05 13:06:36;;;;;;;4.07;1.80;;;24.00;55.80;;;;;;10235255;28;20489;-60
2024/04/05 13:11:38;;;;;;;4.60;1.73;;;24.00;55.50;;;;;;10236860;28;20507;-60
2024/04/05 13:16:41;;;;;;;2.90;1.65;;;24.00;55.50;;;;;;10235463;28;20188;-61
2024/04/05 13:21:42;;;;;;;3.90;1.73;;;24.00;55.10;;;;;;10232757;28;20051;-59
2024/04/05 13:26:44;;;;;;;11.40;2.38;;;24.00;55.30;;;;;;10228567;28;20138;-62
2024/04/05 13:31:47;;;;;;;6.30;1.90;;;24.00;56.10;;;;;;10233100;28;20055;-60
2024/04/05 13:36:50;;;;;;;11.68;1.65;;;24.00;57.00;;;;;;10233491;28;20047;-62
2024/04/05 13:41:51;;;;;;;6.55;1.70;;;24.10;56.80;;;;;;10231530;28;20044;-58
2024/04/05 13:46:54;;;;;;;5.95;1.80;;;24.00;56.00;;;;;;10241910;28;20414;-59
2024/04/05 13:51:56;;;;;;;6.40;1.83;;;24.00;55.70;;;;;;10236919;28;20085;-60
2024/04/05 13:56:58;;;;;;;5.90;1.80;;;24.00;56.10;;;;;;10228863;28;20046;-60
2024/04/05 14:02:06;;;;;;;5.80;2.05;;;24.00;55.50;;;;;;10230973;28;20138;-60
2024/04/05 14:07:08;;;;;;;12.85;2.25;;;24.10;55.40;;;;;;10234563;29;20073;-60
2024/04/05 14:12:09;;;;;;;9.70;2.13;;;24.20;55.80;;;;;;10244364;28;20085;-60
2024/04/05 14:17:12;;;;;;;9.82;1.88;;;24.10;56.50;;;;;;10236566;28;20586;-60
2024/04/05 14:22:14;;;;;;;7.93;2.08;;;24.10;56.90;;;;;;10234028;28;20525;-59
2024/04/05 14:27:16;;;;;;;6.25;1.70;;;24.20;56.70;;;;;;10228408;28;20066;-60
2024/04/05 14:32:19;;;;;;;5.45;1.85;;;24.20;56.60;;;;;;10239079;28;20051;-58
2024/04/05 14:37:20;;;;;;;10.00;1.70;;;24.10;56.70;;;;;;10231805;28;20203;-60
2024/04/05 14:42:22;;;;;;;7.72;1.73;;;24.20;56.50;;;;;;10229012;28;20048;-63
2024/04/05 14:47:26;;;;;;;9.95;2.05;;;24.20;56.10;;;;;;10230170;28;20047;-60
2024/04/05 14:52:27;;;;;;;14.20;2.08;;;24.30;56.00;;;;;;10230905;28;20070;-60
2024/04/05 14:57:29;;;;;;;15.43;2.08;;;24.20;56.30;;;;;;10231356;28;20059;-57
2024/04/05 15:02:32;;;;;;;11.13;2.03;;;24.30;56.20;;;;;;10227643;29;20504;-60
2024/04/05 15:07:34;;;;;;;12.88;2.10;;;24.30;56.60;;;;;;10223507;28;20078;-60
2024/04/05 15:12:37;;;;;;;6.43;1.60;;;24.30;56.30;;;;;;10227977;28;20067;-61
2024/04/05 15:17:40;;;;;;;12.93;1.85;;;24.40;56.30;;;;;;10230176;28;20046;-64
2024/04/05 15:22:41;;;;;;;14.90;1.83;;;24.40;56.10;;;;;;10224167;28;20220;-61
2024/04/05 15:27:43;;;;;;;4.97;1.00;;;24.40;55.70;;;;;;10229422;28;20058;-62
2024/04/05 15:32:46;;;;;;;4.28;1.60;;;24.30;55.90;;;;;;10220235;28;20055;-62
2024/04/05 15:37:50;;;;;;;7.50;1.58;;;24.20;55.70;;;;;;10221870;28;20051;-68
2024/04/05 15:42:52;;;;;;;3.88;1.60;;;24.30;56.20;;;;;;10218426;28;20483;-62
2024/04/05 15:47:55;;;;;;;6.50;2.42;;;24.30;55.30;;;;;;10231292;28;20138;-60
2024/04/05 15:52:57;;;;;;;24.52;11.30;;;24.40;55.60;;;;;;10223436;28;20048;-57
2024/04/05 15:57:59;;;;;;;27.85;12.10;;;24.40;56.50;;;;;;10227246;28;20492;-62
2024/04/05 16:03:02;;;;;;;22.13;9.65;;;24.60;56.90;;;;;;10232674;28;20078;-61
2024/04/05 16:08:05;;;;;;;13.40;7.13;;;24.70;56.50;;;;;;10232479;28;20448;-62
2024/04/05 16:13:07;;;;;;;7.78;3.90;;;24.80;55.40;;;;;;10232526;28;20492;-59
2024/04/05 16:18:10;;;;;;;21.02;9.35;;;24.80;54.60;;;;;;10225743;28;20429;-59
2024/04/05 16:23:12;;;;;;;54.25;24.42;;;24.80;54.10;;;;;;10219881;28;20052;-60
2024/04/05 16:28:13;;;;;;;31.77;16.00;;;24.70;53.60;;;;;;10235000;28;20044;-59
2024/04/05 16:33:17;;;;;;;18.55;8.35;;;24.60;53.10;;;;;;10234847;28;20050;-59
2024/04/05 16:38:23;;;;;;;8.90;4.43;;;24.60;52.10;;;;;;10232059;29;20048;-60
2024/04/05 16:43:27;;;;;;;8.57;4.15;;;24.60;51.20;;;;;;10226722;29;20055;-59
2024/04/05 16:48:31;;;;;;;11.25;4.28;;;24.90;51.50;;;;;;10228679;28;20063;-59
2024/04/05 16:53:32;;;;;;;12.38;4.53;;;24.80;52.50;;;;;;10233916;28;20051;-59
2024/04/05 16:58:35;;;;;;;8.75;3.92;;;24.90;53.00;;;;;;10234220;28;20051;-58
2024/04/05 17:03:38;;;;;;;8.93;3.30;;;25.00;53.00;;;;;;10236696;28;20058;-59
2024/04/05 17:08:39;;;;;;;6.80;3.28;;;25.10;52.60;;;;;;10230186;28;20054;-60
2024/04/05 17:13:43;;;;;;;13.80;3.08;;;25.20;52.10;;;;;;10220985;28;20508;-61
2024/04/05 17:18:46;;;;;;;11.43;3.38;;;25.40;52.10;;;;;;10244338;28;20057;-60
2024/04/05 17:23:49;;;;;;;8.30;3.00;;;25.30;52.50;;;;;;10226793;28;20053;-60
2024/04/05 17:28:50;;;;;;;9.50;3.05;;;25.30;52.60;;;;;;10229045;29;20055;-60
2024/04/05 17:33:53;;;;;;;6.65;2.80;;;25.30;52.70;;;;;;10222024;29;20047;-57
2024/04/05 17:38:55;;;;;;;7.13;3.05;;;25.40;52.90;;;;;;10234830;28;20039;-60
2024/04/05 17:43:58;;;;;;;6.85;2.72;;;25.40;52.70;;;;;;10237225;28;20043;-60
2024/04/05 17:49:02;;;;;;;5.22;2.60;;;25.50;52.60;;;;;;10238296;29;20067;-58
2024/04/05 17:54:04;;;;;;;8.02;2.22;;;25.60;51.90;;;;;;10239886;28;20058;-56
2024/04/05 17:59:06;;;;;;;10.75;2.40;;;25.60;51.60;;;;;;10235649;28;20047;-60
2024/04/05 18:04:09;;;;;;;6.22;2.25;;;25.80;51.20;;;;;;10238886;28;20050;-57
2024/04/05 18:09:14;;;;;;;7.97;2.40;;;25.70;51.20;;;;;;10239684;28;20051;-59
2024/04/05 18:14:15;;;;;;;7.78;2.20;;;25.70;51.30;;;;;;10243826;28;20047;-59
2024/04/05 18:19:21;;;;;;;11.80;2.17;;;25.60;50.90;;;;;;10240425;28;20066;-57
2024/04/05 18:24:23;;;;;;;7.05;2.10;;;25.70;50.50;;;;;;10240932;28;20062;-59
2024/04/05 18:29:25;;;;;;;12.15;2.00;;;25.60;50.10;;;;;;10239021;28;20055;-60
2024/04/05 18:34:28;;;;;;;12.75;2.13;;;25.70;50.30;;;;;;10230674;28;20142;-59
2024/04/05 18:39:29;;;;;;;5.95;2.00;;;25.80;51.50;;;;;;10239849;28;20057;-56
2024/04/05 18:44:34;;;;;;;4.68;1.90;;;25.20;51.70;;;;;;10243401;28;20130;-60
2024/04/05 18:49:38;;;;;;;5.00;1.73;;;25.00;52.10;;;;;;10239691;28;20430;-58
2024/04/05 18:54:39;;;;;;;5.30;1.83;;;24.90;52.20;;;;;;10241326;28;20165;-59
2024/04/05 18:59:41;;;;;;;4.68;1.90;;;24.70;52.90;;;;;;10233292;28;20058;-58
2024/04/05 19:04:44;;;;;;;5.63;2.17;;;24.60;52.20;;;;;;10245524;28;20220;-56
2024/04/05 19:09:46;;;;;;;4.15;1.80;;;24.60;52.80;;;;;;10235669;28;20405;-53
2024/04/05 19:14:48;;;;;;;2.65;1.67;;;24.50;52.20;;;;;;10239783;28;20142;-58
2024/04/05 19:19:51;;;;;;;6.80;1.90;;;24.50;52.30;;;;;;10233164;28;20139;-59
2024/04/05 19:24:53;;;;;;;4.93;1.70;;;24.70;52.00;;;;;;10233367;29;20056;-59
2024/04/05 19:29:54;;;;;;;3.75;1.70;;;24.80;51.20;;;;;;10245888;28;20055;-60
2024/04/05 19:34:57;;;;;;;3.92;1.50;;;24.90;50.90;;;;;;10235901;29;20072;-59
2024/04/05 19:39:59;;;;;;;8.43;1.77;;;24.90;50.30;;;;;;10244341;28;20049;-57
2024/04/05 19:45:00;;;;;;;5.38;1.92;;;24.70;50.70;;;;;;10246111;28;20073;-60
2024/04/05 19:50:04;;;;;;;3.35;1.70;;;24.80;50.90;;;;;;10239311;28;20073;-58
2024/04/05 19:55:06;;;;;;;4.28;1.77;;;24.90;50.60;;;;;;10236479;28;20055;-57
2024/04/05 20:00:10;;;;;;;3.97;1.40;;;25.00;50.70;;;;;;10244377;28;20047;-57
2024/04/05 20:05:13;;;;;;;3.55;1.50;;;24.70;51.50;;;;;;10233668;28;20530;-59
2024/04/05 20:10:14;;;;;;;8.73;1.88;;;24.80;51.50;;;;;;10242108;28;20443;-58
2024/04/05 20:15:16;;;;;;;3.92;1.60;;;24.60;52.10;;;;;;10222657;28;20126;-56
2024/04/05 20:20:19;;;;;;;4.00;1.70;;;24.70;52.30;;;;;;10230583;28;20126;-57
2024/04/05 20:25:22;;;;;;;5.22;1.50;;;24.70;52.00;;;;;;10239289;28;20058;-59
2024/04/05 20:35:44;;;;;;;3.38;1.50;;;24.90;51.90;;;;;;10272990;28;20051;-58
2024/04/05 20:40:46;;;;;;;5.18;1.80;;;25.00;52.10;;;;;;10273905;28;20046;-55
2024/04/05 20:45:47;;;;;;;5.10;1.60;;;25.00;52.40;;;;;;10276794;28;20062;-56
2024/04/05 20:50:53;;;;;;;4.13;1.65;;;24.70;52.80;;;;;;10267365;28;20051;-55
2024/04/05 20:55:55;;;;;;;3.47;1.70;;;24.70;52.80;;;;;;10244281;28;20511;-55
2024/04/05 21:00:56;;;;;;;4.75;1.52;;;24.60;53.10;;;;;;10223658;28;20072;-54
2024/04/05 21:05:59;;;;;;;3.47;1.60;;;24.60;53.00;;;;;;10236086;28;20048;-56
2024/04/05 21:11:01;;;;;;;4.70;1.70;;;24.70;52.70;;;;;;10232429;28;20056;-56
2024/04/05 21:16:05;;;;;;;4.15;1.75;;;24.40;53.40;;;;;;10230674;28;20051;-58
2024/04/05 21:21:08;;;;;;;4.50;1.95;;;24.50;53.20;;;;;;10239491;28;20040;-55
2024/04/05 21:26:10;;;;;;;5.43;1.55;;;24.70;52.60;;;;;;10239543;28;20049;-57
2024/04/05 21:31:11;;;;;;;5.07;1.67;;;24.70;52.60;;;;;;10236242;28;20043;-57
2024/04/05 21:36:14;;;;;;;3.53;1.50;;;24.50;52.60;;;;;;10253087;28;20053;-56
2024/04/05 21:41:16;;;;;;;5.28;1.58;;;24.80;52.10;;;;;;10242376;29;20060;-59
2024/04/05 21:46:18;;;;;;;4.18;1.60;;;24.70;52.00;;;;;;10254160;29;20134;-58
2024/04/05 21:51:21;;;;;;;3.63;1.60;;;24.70;51.90;;;;;;10254482;28;20068;-60
2024/04/05 21:56:22;;;;;;;4.72;1.63;;;24.60;51.90;;;;;;10250248;28;20159;-54
2024/04/05 22:01:24;;;;;;;6.20;1.52;;;24.50;51.90;;;;;;10253803;28;20039;-57
2024/04/05 22:06:27;;;;;;;4.38;1.60;;;24.50;52.10;;;;;;10244337;29;20094;-59
2024/04/05 22:11:29;;;;;;;3.15;1.50;;;24.30;52.50;;;;;;10243948;28;20048;-58
2024/04/05 22:16:30;;;;;;;3.53;1.67;;;24.20;52.50;;;;;;10245544;28;20046;-58
2024/04/05 22:21:33;;;;;;;3.22;1.48;;;24.20;52.40;;;;;;10249554;28;20499;-60
2024/04/05 22:26:36;;;;;;;2.47;1.50;;;24.10;52.60;;;;;;10239491;28;20053;-58
2024/04/05 22:31:38;;;;;;;3.20;1.25;;;24.00;52.70;;;;;;10260089;28;20408;-58
2024/04/05 22:36:41;;;;;;;4.10;1.50;;;24.00;52.80;;;;;;10249506;28;20496;-60
2024/04/05 22:41:42;;;;;;;2.95;1.48;;;23.90;52.80;;;;;;10263741;28;20130;-58
2024/04/05 22:46:45;;;;;;;2.35;1.55;;;24.00;52.80;;;;;;10239872;28;20062;-59
2024/04/05 22:51:47;;;;;;;2.72;1.40;;;23.90;52.70;;;;;;10245998;29;21514;-59
2024/04/05 22:56:49;;;;;;;1.95;1.10;;;23.80;52.80;;;;;;10244147;28;20058;-59
2024/04/05 23:01:51;;;;;;;1.40;1.20;;;23.90;52.60;;;;;;10244009;28;20051;-59
2024/04/05 23:06:54;;;;;;;3.40;1.42;;;23.80;52.60;;;;;;10273143;28;20050;-57
2024/04/05 23:11:55;;;;;;;2.55;1.52;;;23.90;52.50;;;;;;10289860;28;20074;-59
2024/04/05 23:16:57;;;;;;;2.97;1.30;;;23.80;52.50;;;;;;10291500;28;20051;-58
2024/04/05 23:22:00;;;;;;;2.92;1.30;;;23.80;52.60;;;;;;10280597;28;20073;-56
2024/04/05 23:27:01;;;;;;;3.35;1.52;;;23.70;52.50;;;;;;10286147;28;20047;-60
2024/04/05 23:32:03;;;;;;;2.63;1.40;;;23.60;52.60;;;;;;10263864;28;20587;-60
2024/04/05 23:37:07;;;;;;;2.28;1.40;;;23.60;52.80;;;;;;10290200;28;20062;-58
2024/04/05 23:42:08;;;;;;;4.07;1.50;;;23.60;52.60;;;;;;10274288;28;20130;-60
2024/04/05 23:47:10;;;;;;;2.08;1.30;;;23.50;52.50;;;;;;10270361;28;20134;-57
2024/04/05 23:52:13;;;;;;;3.38;1.27;;;23.60;52.40;;;;;;10289191;28;20146;-57
2024/04/05 23:57:14;;;;;;;2.10;1.30;;;23.60;52.30;;;;;;10247647;28;20058;-58
